sensor_id;sensor_type;location;lat;lon;timestamp;temperature;humidity
15103;DHT22;7652;53.584;9.998;2022-09-20T00:02:20;10.70;99.90
15103;DHT22;7652;53.584;9.998;2022-09-20T00:05:23;10.60;99.90
15103;DHT22;7652;53.584;9.998;2022-09-20T00:08:28;10.60;99.90
15103;DHT22;7652;53.584;9.998;2022-09-20T00:11:32;10.60;99.90
15103;DHT22;7652;53.584;9.998;2022-09-20T00:14:36;10.60;99.90
15103;DHT22;7652;53.584;9.998;2022-09-20T00:17:39;10.60;99.90
15103;DHT22;7652;53.584;9.998;2022-09-20T00:20:44;10.50;99.90
15103;DHT22;7652;53.584;9.998;2022-09-20T00:23:49;10.60;99.90
15103;DHT22;7652;53.584;9.998;2022-09-20T00:26:53;10.60;99.90
15103;DHT22;7652;53.584;9.998;2022-09-20T00:29:56;10.60;99.90
15103;DHT22;7652;53.584;9.998;2022-09-20T00:32:59;10.60;99.90
15103;DHT22;7652;53.584;9.998;2022-09-20T00:36:02;10.60;99.90
15103;DHT22;7652;53.584;9.998;2022-09-20T00:39:06;10.70;99.90
15103;DHT22;7652;53.584;9.998;2022-09-20T00:42:12;10.60;99.90
15103;DHT22;7652;53.584;9.998;2022-09-20T00:45:20;10.60;99.90
15103;DHT22;7652;53.584;9.998;2022-09-20T00:48:28;10.60;99.90
15103;DHT22;7652;53.584;9.998;2022-09-20T00:51:34;10.60;99.90
15103;DHT22;7652;53.584;9.998;2022-09-20T00:54:41;10.60;99.90
15103;DHT22;7652;53.584;9.998;2022-09-20T00:57:45;10.60;99.90
15103;DHT22;7652;53.584;9.998;2022-09-20T01:00:49;10.60;99.90
15103;DHT22;7652;53.584;9.998;2022-09-20T01:03:53;10.50;99.90
15103;DHT22;7652;53.584;9.998;2022-09-20T01:07:00;10.50;99.90
15103;DHT22;7652;53.584;9.998;2022-09-20T01:10:05;10.50;99.90
15103;DHT22;7652;53.584;9.998;2022-09-20T01:13:08;10.60;99.90
15103;DHT22;7652;53.584;9.998;2022-09-20T01:16:13;10.60;99.90
15103;DHT22;7652;53.584;9.998;2022-09-20T01:19:23;10.40;99.90
15103;DHT22;7652;53.584;9.998;2022-09-20T01:22:35;10.30;99.90
15103;DHT22;7652;53.584;9.998;2022-09-20T01:26:13;10.40;99.90
15103;DHT22;7652;53.584;9.998;2022-09-20T01:29:34;10.40;99.90
15103;DHT22;7652;53.584;9.998;2022-09-20T01:32:47;10.50;99.90
15103;DHT22;7652;53.584;9.998;2022-09-20T01:35:54;10.50;99.90
15103;DHT22;7652;53.584;9.998;2022-09-20T01:39:04;10.50;99.90
15103;DHT22;7652;53.584;9.998;2022-09-20T01:42:12;10.40;99.90
15103;DHT22;7652;53.584;9.998;2022-09-20T01:45:22;10.40;99.90
15103;DHT22;7652;53.584;9.998;2022-09-20T01:48:32;10.40;99.90
15103;DHT22;7652;53.584;9.998;2022-09-20T01:55:43;10.30;99.90
15103;DHT22;7652;53.584;9.998;2022-09-20T01:59:12;10.40;99.90
15103;DHT22;7652;53.584;9.998;2022-09-20T02:02:39;10.40;99.90
15103;DHT22;7652;53.584;9.998;2022-09-20T02:06:20;10.40;99.90
15103;DHT22;7652;53.584;9.998;2022-09-20T02:13:03;10.40;99.90
15103;DHT22;7652;53.584;9.998;2022-09-20T02:16:25;10.30;99.90
15103;DHT22;7652;53.584;9.998;2022-09-20T02:19:45;10.30;99.90
15103;DHT22;7652;53.584;9.998;2022-09-20T02:26:26;10.30;99.90
15103;DHT22;7652;53.584;9.998;2022-09-20T02:29:35;10.20;99.90
15103;DHT22;7652;53.584;9.998;2022-09-20T02:32:57;10.10;99.90
15103;DHT22;7652;53.584;9.998;2022-09-20T02:36:15;10.10;99.90
15103;DHT22;7652;53.584;9.998;2022-09-20T02:39:21;10.20;99.90
15103;DHT22;7652;53.584;9.998;2022-09-20T02:42:33;10.10;99.90
15103;DHT22;7652;53.584;9.998;2022-09-20T02:45:43;10.10;99.90
15103;DHT22;7652;53.584;9.998;2022-09-20T02:48:54;10.10;99.90
15103;DHT22;7652;53.584;9.998;2022-09-20T02:52:06;10.10;99.90
15103;DHT22;7652;53.584;9.998;2022-09-20T02:55:16;10.00;99.90
15103;DHT22;7652;53.584;9.998;2022-09-20T02:58:29;10.00;99.90
15103;DHT22;7652;53.584;9.998;2022-09-20T03:01:41;10.00;99.90
15103;DHT22;7652;53.584;9.998;2022-09-20T03:04:56;10.10;99.90
15103;DHT22;7652;53.584;9.998;2022-09-20T03:08:14;10.10;99.90
15103;DHT22;7652;53.584;9.998;2022-09-20T03:11:28;10.00;99.90
15103;DHT22;7652;53.584;9.998;2022-09-20T03:14:36;9.90;99.90
15103;DHT22;7652;53.584;9.998;2022-09-20T03:17:46;9.90;99.90
15103;DHT22;7652;53.584;9.998;2022-09-20T03:20:56;9.90;99.90
15103;DHT22;7652;53.584;9.998;2022-09-20T03:24:15;9.90;99.90
15103;DHT22;7652;53.584;9.998;2022-09-20T03:27:26;9.80;99.90
15103;DHT22;7652;53.584;9.998;2022-09-20T03:30:43;9.80;99.90
15103;DHT22;7652;53.584;9.998;2022-09-20T03:33:55;9.70;99.90
15103;DHT22;7652;53.584;9.998;2022-09-20T03:37:20;9.70;99.90
15103;DHT22;7652;53.584;9.998;2022-09-20T03:40:58;9.70;99.90
15103;DHT22;7652;53.584;9.998;2022-09-20T03:44:14;9.60;99.90
15103;DHT22;7652;53.584;9.998;2022-09-20T03:47:33;9.60;99.90
15103;DHT22;7652;53.584;9.998;2022-09-20T03:50:46;9.60;99.90
15103;DHT22;7652;53.584;9.998;2022-09-20T03:57:55;9.50;99.90
15103;DHT22;7652;53.584;9.998;2022-09-20T04:01:11;9.50;99.90
15103;DHT22;7652;53.584;9.998;2022-09-20T04:04:24;9.50;99.90
15103;DHT22;7652;53.584;9.998;2022-09-20T04:07:39;9.50;99.90
15103;DHT22;7652;53.584;9.998;2022-09-20T04:10:53;9.50;99.90
15103;DHT22;7652;53.584;9.998;2022-09-20T04:14:08;9.40;99.90
15103;DHT22;7652;53.584;9.998;2022-09-20T04:17:27;9.50;99.90
15103;DHT22;7652;53.584;9.998;2022-09-20T04:20:39;9.50;99.90
15103;DHT22;7652;53.584;9.998;2022-09-20T04:23:51;9.40;99.90
15103;DHT22;7652;53.584;9.998;2022-09-20T04:27:00;9.40;99.90
15103;DHT22;7652;53.584;9.998;2022-09-20T04:30:16;9.30;99.90
15103;DHT22;7652;53.584;9.998;2022-09-20T04:33:25;9.30;99.90
15103;DHT22;7652;53.584;9.998;2022-09-20T04:36:36;9.40;99.90
15103;DHT22;7652;53.584;9.998;2022-09-20T04:40:02;9.40;99.90
15103;DHT22;7652;53.584;9.998;2022-09-20T04:47:23;9.30;99.90
15103;DHT22;7652;53.584;9.998;2022-09-20T04:51:16;9.30;99.90
15103;DHT22;7652;53.584;9.998;2022-09-20T04:58:31;9.10;99.90
15103;DHT22;7652;53.584;9.998;2022-09-20T05:02:02;9.10;99.90
15103;DHT22;7652;53.584;9.998;2022-09-20T05:05:34;9.10;99.90
15103;DHT22;7652;53.584;9.998;2022-09-20T05:09:10;9.10;99.90
15103;DHT22;7652;53.584;9.998;2022-09-20T05:12:40;9.10;99.90
15103;DHT22;7652;53.584;9.998;2022-09-20T05:15:57;9.20;99.90
15103;DHT22;7652;53.584;9.998;2022-09-20T05:19:14;9.20;99.90
15103;DHT22;7652;53.584;9.998;2022-09-20T05:22:57;9.20;99.90
15103;DHT22;7652;53.584;9.998;2022-09-20T05:26:11;9.10;99.90
15103;DHT22;7652;53.584;9.998;2022-09-20T05:29:20;9.10;99.90
15103;DHT22;7652;53.584;9.998;2022-09-20T05:32:32;9.20;99.90
15103;DHT22;7652;53.584;9.998;2022-09-20T05:35:42;9.20;99.90
15103;DHT22;7652;53.584;9.998;2022-09-20T05:38:55;9.10;99.90
15103;DHT22;7652;53.584;9.998;2022-09-20T05:42:17;9.20;99.90
15103;DHT22;7652;53.584;9.998;2022-09-20T05:45:35;9.20;99.90
15103;DHT22;7652;53.584;9.998;2022-09-20T05:48:54;9.20;99.90
15103;DHT22;7652;53.584;9.998;2022-09-20T05:52:08;9.30;99.90
15103;DHT22;7652;53.584;9.998;2022-09-20T05:55:38;9.30;99.90
15103;DHT22;7652;53.584;9.998;2022-09-20T05:58:52;9.30;99.90
15103;DHT22;7652;53.584;9.998;2022-09-20T06:02:13;9.40;99.90
15103;DHT22;7652;53.584;9.998;2022-09-20T06:05:28;9.40;99.90
15103;DHT22;7652;53.584;9.998;2022-09-20T06:08:52;9.40;99.90
15103;DHT22;7652;53.584;9.998;2022-09-20T06:12:22;9.50;99.90
15103;DHT22;7652;53.584;9.998;2022-09-20T06:15:33;9.50;99.90
15103;DHT22;7652;53.584;9.998;2022-09-20T06:18:42;9.60;99.90
15103;DHT22;7652;53.584;9.998;2022-09-20T06:21:50;9.60;99.90
15103;DHT22;7652;53.584;9.998;2022-09-20T06:24:58;9.70;99.90
15103;DHT22;7652;53.584;9.998;2022-09-20T06:28:10;9.70;99.90
15103;DHT22;7652;53.584;9.998;2022-09-20T06:31:15;9.80;99.90
15103;DHT22;7652;53.584;9.998;2022-09-20T06:34:19;9.90;99.90
15103;DHT22;7652;53.584;9.998;2022-09-20T06:37:38;10.00;99.90
15103;DHT22;7652;53.584;9.998;2022-09-20T06:40:59;10.00;99.90
15103;DHT22;7652;53.584;9.998;2022-09-20T06:44:21;10.10;99.90
15103;DHT22;7652;53.584;9.998;2022-09-20T06:47:24;10.20;99.90
15103;DHT22;7652;53.584;9.998;2022-09-20T06:50:28;10.30;99.90
15103;DHT22;7652;53.584;9.998;2022-09-20T06:53:33;10.30;99.90
15103;DHT22;7652;53.584;9.998;2022-09-20T06:56:37;10.40;99.90
15103;DHT22;7652;53.584;9.998;2022-09-20T06:59:41;10.50;99.90
15103;DHT22;7652;53.584;9.998;2022-09-20T07:02:44;10.60;99.90
15103;DHT22;7652;53.584;9.998;2022-09-20T07:05:48;10.60;99.90
15103;DHT22;7652;53.584;9.998;2022-09-20T07:08:51;10.70;99.90
15103;DHT22;7652;53.584;9.998;2022-09-20T07:11:54;10.80;99.90
15103;DHT22;7652;53.584;9.998;2022-09-20T07:15:01;10.90;99.90
15103;DHT22;7652;53.584;9.998;2022-09-20T07:18:04;11.00;99.90
15103;DHT22;7652;53.584;9.998;2022-09-20T07:21:10;11.00;99.90
15103;DHT22;7652;53.584;9.998;2022-09-20T07:24:13;11.10;99.90
15103;DHT22;7652;53.584;9.998;2022-09-20T07:27:17;11.20;99.90
15103;DHT22;7652;53.584;9.998;2022-09-20T07:30:21;11.30;99.90
15103;DHT22;7652;53.584;9.998;2022-09-20T07:33:24;11.40;99.90
15103;DHT22;7652;53.584;9.998;2022-09-20T07:36:27;11.40;99.90
15103;DHT22;7652;53.584;9.998;2022-09-20T07:39:31;11.60;99.90
15103;DHT22;7652;53.584;9.998;2022-09-20T07:42:34;11.60;99.90
15103;DHT22;7652;53.584;9.998;2022-09-20T07:45:38;11.80;99.90
15103;DHT22;7652;53.584;9.998;2022-09-20T07:48:42;11.80;99.90
15103;DHT22;7652;53.584;9.998;2022-09-20T07:51:45;12.00;99.90
15103;DHT22;7652;53.584;9.998;2022-09-20T07:54:49;12.10;99.90
15103;DHT22;7652;53.584;9.998;2022-09-20T07:57:52;12.20;99.90
15103;DHT22;7652;53.584;9.998;2022-09-20T08:00:59;12.40;99.90
15103;DHT22;7652;53.584;9.998;2022-09-20T08:04:03;12.80;99.90
15103;DHT22;7652;53.584;9.998;2022-09-20T08:07:06;13.10;99.90
15103;DHT22;7652;53.584;9.998;2022-09-20T08:10:09;13.40;99.90
15103;DHT22;7652;53.584;9.998;2022-09-20T08:13:13;13.40;99.90
15103;DHT22;7652;53.584;9.998;2022-09-20T08:16:39;13.40;99.90
15103;DHT22;7652;53.584;9.998;2022-09-20T08:19:43;13.30;99.90
15103;DHT22;7652;53.584;9.998;2022-09-20T08:22:46;13.60;99.90
15103;DHT22;7652;53.584;9.998;2022-09-20T08:26:11;14.20;99.90
15103;DHT22;7652;53.584;9.998;2022-09-20T08:29:15;14.20;99.90
15103;DHT22;7652;53.584;9.998;2022-09-20T08:32:19;14.30;99.90
15103;DHT22;7652;53.584;9.998;2022-09-20T08:35:22;14.40;99.90
15103;DHT22;7652;53.584;9.998;2022-09-20T08:38:27;14.60;99.90
15103;DHT22;7652;53.584;9.998;2022-09-20T08:41:53;14.80;99.90
15103;DHT22;7652;53.584;9.998;2022-09-20T08:44:59;14.80;99.90
15103;DHT22;7652;53.584;9.998;2022-09-20T08:48:11;14.60;99.90
15103;DHT22;7652;53.584;9.998;2022-09-20T08:51:15;14.70;99.90
15103;DHT22;7652;53.584;9.998;2022-09-20T08:54:24;14.60;99.90
15103;DHT22;7652;53.584;9.998;2022-09-20T08:57:33;14.50;99.90
15103;DHT22;7652;53.584;9.998;2022-09-20T09:00:37;14.40;99.90
15103;DHT22;7652;53.584;9.998;2022-09-20T09:03:42;14.40;99.90
15103;DHT22;7652;53.584;9.998;2022-09-20T09:06:46;14.50;99.90
15103;DHT22;7652;53.584;9.998;2022-09-20T09:09:51;14.50;99.90
15103;DHT22;7652;53.584;9.998;2022-09-20T09:12:56;14.50;99.90
15103;DHT22;7652;53.584;9.998;2022-09-20T09:16:04;14.50;99.90
15103;DHT22;7652;53.584;9.998;2022-09-20T09:19:28;14.60;99.90
15103;DHT22;7652;53.584;9.998;2022-09-20T09:22:39;14.70;99.90
15103;DHT22;7652;53.584;9.998;2022-09-20T09:25:43;14.80;99.90
15103;DHT22;7652;53.584;9.998;2022-09-20T09:28:46;14.80;99.90
15103;DHT22;7652;53.584;9.998;2022-09-20T09:31:51;14.90;99.90
15103;DHT22;7652;53.584;9.998;2022-09-20T09:35:21;15.00;99.90
15103;DHT22;7652;53.584;9.998;2022-09-20T09:38:26;15.00;99.90
15103;DHT22;7652;53.584;9.998;2022-09-20T09:41:31;15.10;99.90
15103;DHT22;7652;53.584;9.998;2022-09-20T09:44:36;15.10;99.90
15103;DHT22;7652;53.584;9.998;2022-09-20T09:47:38;15.20;99.90
15103;DHT22;7652;53.584;9.998;2022-09-20T09:50:43;15.20;99.90
15103;DHT22;7652;53.584;9.998;2022-09-20T09:53:47;15.20;99.90
15103;DHT22;7652;53.584;9.998;2022-09-20T09:57:00;15.30;99.90
15103;DHT22;7652;53.584;9.998;2022-09-20T10:00:10;15.40;99.90
15103;DHT22;7652;53.584;9.998;2022-09-20T10:03:33;15.40;99.90
15103;DHT22;7652;53.584;9.998;2022-09-20T10:06:44;15.50;99.90
15103;DHT22;7652;53.584;9.998;2022-09-20T10:10:05;15.60;99.90
15103;DHT22;7652;53.584;9.998;2022-09-20T10:13:14;15.60;99.90
15103;DHT22;7652;53.584;9.998;2022-09-20T10:16:28;15.70;99.90
15103;DHT22;7652;53.584;9.998;2022-09-20T10:19:45;15.80;99.90
15103;DHT22;7652;53.584;9.998;2022-09-20T10:22:58;15.60;99.90
15103;DHT22;7652;53.584;9.998;2022-09-20T10:26:35;15.70;99.90
15103;DHT22;7652;53.584;9.998;2022-09-20T10:29:49;15.80;99.90
15103;DHT22;7652;53.584;9.998;2022-09-20T10:33:01;16.00;99.90
15103;DHT22;7652;53.584;9.998;2022-09-20T10:36:15;16.20;99.90
15103;DHT22;7652;53.584;9.998;2022-09-20T10:39:25;16.40;99.90
15103;DHT22;7652;53.584;9.998;2022-09-20T10:42:37;16.50;99.90
15103;DHT22;7652;53.584;9.998;2022-09-20T10:46:10;16.70;99.90
15103;DHT22;7652;53.584;9.998;2022-09-20T10:49:35;16.70;99.90
15103;DHT22;7652;53.584;9.998;2022-09-20T10:53:01;16.70;99.90
15103;DHT22;7652;53.584;9.998;2022-09-20T10:56:18;17.30;99.90
15103;DHT22;7652;53.584;9.998;2022-09-20T10:59:34;18.20;99.90
15103;DHT22;7652;53.584;9.998;2022-09-20T11:03:03;19.00;99.90
15103;DHT22;7652;53.584;9.998;2022-09-20T11:06:14;19.30;99.90
15103;DHT22;7652;53.584;9.998;2022-09-20T11:09:23;18.80;99.90
15103;DHT22;7652;53.584;9.998;2022-09-20T11:12:35;18.70;99.90
15103;DHT22;7652;53.584;9.998;2022-09-20T11:15:44;18.60;99.90
15103;DHT22;7652;53.584;9.998;2022-09-20T11:18:50;18.80;99.90
15103;DHT22;7652;53.584;9.998;2022-09-20T11:21:56;19.20;99.90
15103;DHT22;7652;53.584;9.998;2022-09-20T11:25:07;19.50;99.90
15103;DHT22;7652;53.584;9.998;2022-09-20T11:28:25;19.20;99.90
15103;DHT22;7652;53.584;9.998;2022-09-20T11:31:34;19.30;99.90
15103;DHT22;7652;53.584;9.998;2022-09-20T11:34:46;19.10;99.90
15103;DHT22;7652;53.584;9.998;2022-09-20T11:37:57;18.80;99.90
15103;DHT22;7652;53.584;9.998;2022-09-20T11:41:07;18.50;99.90
15103;DHT22;7652;53.584;9.998;2022-09-20T11:44:17;18.30;99.90
15103;DHT22;7652;53.584;9.998;2022-09-20T11:47:23;18.40;99.90
15103;DHT22;7652;53.584;9.998;2022-09-20T11:55:16;19.90;99.90
15103;DHT22;7652;53.584;9.998;2022-09-20T11:58:21;20.90;98.70
15103;DHT22;7652;53.584;9.998;2022-09-20T12:01:28;22.00;94.20
15103;DHT22;7652;53.584;9.998;2022-09-20T12:04:34;23.30;90.60
15103;DHT22;7652;53.584;9.998;2022-09-20T12:07:40;24.60;89.00
15103;DHT22;7652;53.584;9.998;2022-09-20T12:10:55;24.00;85.60
15103;DHT22;7652;53.584;9.998;2022-09-20T12:14:02;22.90;84.40
15103;DHT22;7652;53.584;9.998;2022-09-20T12:21:11;21.00;87.90
15103;DHT22;7652;53.584;9.998;2022-09-20T12:24:20;20.40;91.30
15103;DHT22;7652;53.584;9.998;2022-09-20T12:27:54;22.00;88.50
15103;DHT22;7652;53.584;9.998;2022-09-20T12:34:36;25.80;74.20
15103;DHT22;7652;53.584;9.998;2022-09-20T12:37:39;24.80;74.60
15103;DHT22;7652;53.584;9.998;2022-09-20T12:40:57;24.80;77.60
15103;DHT22;7652;53.584;9.998;2022-09-20T12:44:05;25.20;76.00
15103;DHT22;7652;53.584;9.998;2022-09-20T12:47:23;23.90;76.60
15103;DHT22;7652;53.584;9.998;2022-09-20T12:50:28;23.30;77.40
15103;DHT22;7652;53.584;9.998;2022-09-20T12:54:00;23.70;76.40
15103;DHT22;7652;53.584;9.998;2022-09-20T12:57:16;24.30;74.90
15103;DHT22;7652;53.584;9.998;2022-09-20T13:00:30;24.10;75.20
15103;DHT22;7652;53.584;9.998;2022-09-20T13:03:40;24.60;75.40
15103;DHT22;7652;53.584;9.998;2022-09-20T13:06:45;25.10;73.60
15103;DHT22;7652;53.584;9.998;2022-09-20T13:09:49;26.00;72.70
15103;DHT22;7652;53.584;9.998;2022-09-20T13:12:56;26.20;70.70
15103;DHT22;7652;53.584;9.998;2022-09-20T13:16:02;27.40;64.50
15103;DHT22;7652;53.584;9.998;2022-09-20T13:19:13;28.80;61.10
15103;DHT22;7652;53.584;9.998;2022-09-20T13:22:23;28.00;59.40
15103;DHT22;7652;53.584;9.998;2022-09-20T13:25:26;25.70;65.10
15103;DHT22;7652;53.584;9.998;2022-09-20T13:28:37;23.80;74.40
15103;DHT22;7652;53.584;9.998;2022-09-20T13:31:41;21.80;83.30
15103;DHT22;7652;53.584;9.998;2022-09-20T13:34:44;20.50;92.00
15103;DHT22;7652;53.584;9.998;2022-09-20T13:37:53;20.10;94.00
15103;DHT22;7652;53.584;9.998;2022-09-20T13:41:02;20.30;94.50
15103;DHT22;7652;53.584;9.998;2022-09-20T13:44:15;20.50;92.40
15103;DHT22;7652;53.584;9.998;2022-09-20T13:47:24;20.70;90.50
15103;DHT22;7652;53.584;9.998;2022-09-20T13:50:29;20.30;90.90
15103;DHT22;7652;53.584;9.998;2022-09-20T13:53:35;19.80;93.80
15103;DHT22;7652;53.584;9.998;2022-09-20T13:56:43;19.80;95.70
15103;DHT22;7652;53.584;9.998;2022-09-20T13:59:46;20.00;94.40
15103;DHT22;7652;53.584;9.998;2022-09-20T14:02:51;19.80;94.20
15103;DHT22;7652;53.584;9.998;2022-09-20T14:05:58;19.80;94.50
15103;DHT22;7652;53.584;9.998;2022-09-20T14:09:05;19.80;94.20
15103;DHT22;7652;53.584;9.998;2022-09-20T14:12:12;19.90;92.40
15103;DHT22;7652;53.584;9.998;2022-09-20T14:15:15;19.90;93.60
15103;DHT22;7652;53.584;9.998;2022-09-20T14:18:19;19.60;94.50
15103;DHT22;7652;53.584;9.998;2022-09-20T14:21:25;19.40;95.50
15103;DHT22;7652;53.584;9.998;2022-09-20T14:24:31;19.20;95.90
15103;DHT22;7652;53.584;9.998;2022-09-20T14:27:36;19.00;97.00
15103;DHT22;7652;53.584;9.998;2022-09-20T14:30:39;18.90;97.80
15103;DHT22;7652;53.584;9.998;2022-09-20T14:33:45;18.80;99.10
15103;DHT22;7652;53.584;9.998;2022-09-20T14:37:03;18.90;99.70
15103;DHT22;7652;53.584;9.998;2022-09-20T14:40:19;19.10;97.30
15103;DHT22;7652;53.584;9.998;2022-09-20T14:43:26;19.30;95.90
15103;DHT22;7652;53.584;9.998;2022-09-20T14:46:33;19.30;96.50
15103;DHT22;7652;53.584;9.998;2022-09-20T14:49:40;19.10;96.00
15103;DHT22;7652;53.584;9.998;2022-09-20T14:52:44;19.10;97.00
15103;DHT22;7652;53.584;9.998;2022-09-20T14:55:57;19.00;98.40
15103;DHT22;7652;53.584;9.998;2022-09-20T15:02:23;18.80;97.80
15103;DHT22;7652;53.584;9.998;2022-09-20T15:05:27;18.80;98.10
15103;DHT22;7652;53.584;9.998;2022-09-20T15:08:32;18.60;99.20
15103;DHT22;7652;53.584;9.998;2022-09-20T15:11:37;18.50;99.90
15103;DHT22;7652;53.584;9.998;2022-09-20T15:14:41;18.30;99.90
15103;DHT22;7652;53.584;9.998;2022-09-20T15:17:45;18.20;99.90
15103;DHT22;7652;53.584;9.998;2022-09-20T15:20:49;18.10;99.90
15103;DHT22;7652;53.584;9.998;2022-09-20T15:23:53;18.20;99.90
15103;DHT22;7652;53.584;9.998;2022-09-20T15:26:57;18.20;99.90
15103;DHT22;7652;53.584;9.998;2022-09-20T15:30:00;18.30;96.40
15103;DHT22;7652;53.584;9.998;2022-09-20T15:33:03;18.30;98.00
15103;DHT22;7652;53.584;9.998;2022-09-20T15:36:06;18.20;98.70
15103;DHT22;7652;53.584;9.998;2022-09-20T15:39:10;18.10;99.90
15103;DHT22;7652;53.584;9.998;2022-09-20T15:42:14;17.80;99.90
15103;DHT22;7652;53.584;9.998;2022-09-20T15:45:18;17.80;99.90
15103;DHT22;7652;53.584;9.998;2022-09-20T15:48:23;17.80;99.90
15103;DHT22;7652;53.584;9.998;2022-09-20T15:51:28;17.70;99.90
15103;DHT22;7652;53.584;9.998;2022-09-20T15:54:31;17.70;99.90
15103;DHT22;7652;53.584;9.998;2022-09-20T15:57:36;17.60;99.90
15103;DHT22;7652;53.584;9.998;2022-09-20T16:00:40;17.40;99.90
15103;DHT22;7652;53.584;9.998;2022-09-20T16:03:44;17.30;99.90
15103;DHT22;7652;53.584;9.998;2022-09-20T16:06:48;17.30;99.90
15103;DHT22;7652;53.584;9.998;2022-09-20T16:09:52;17.30;99.90
15103;DHT22;7652;53.584;9.998;2022-09-20T16:12:57;17.20;99.90
15103;DHT22;7652;53.584;9.998;2022-09-20T16:16:00;17.10;99.90
15103;DHT22;7652;53.584;9.998;2022-09-20T16:19:03;17.10;99.90
15103;DHT22;7652;53.584;9.998;2022-09-20T16:22:20;17.10;99.90
15103;DHT22;7652;53.584;9.998;2022-09-20T16:25:24;17.00;99.90
15103;DHT22;7652;53.584;9.998;2022-09-20T16:28:28;16.90;99.90
15103;DHT22;7652;53.584;9.998;2022-09-20T16:31:34;16.90;99.90
15103;DHT22;7652;53.584;9.998;2022-09-20T16:34:40;17.00;99.90
15103;DHT22;7652;53.584;9.998;2022-09-20T16:37:43;16.80;99.90
15103;DHT22;7652;53.584;9.998;2022-09-20T16:40:47;16.60;99.90
15103;DHT22;7652;53.584;9.998;2022-09-20T16:43:53;16.60;99.90
15103;DHT22;7652;53.584;9.998;2022-09-20T16:46:57;16.60;99.90
15103;DHT22;7652;53.584;9.998;2022-09-20T16:50:00;16.60;99.90
15103;DHT22;7652;53.584;9.998;2022-09-20T16:53:03;16.60;99.90
15103;DHT22;7652;53.584;9.998;2022-09-20T16:56:06;16.40;99.90
15103;DHT22;7652;53.584;9.998;2022-09-20T16:59:12;16.30;99.90
15103;DHT22;7652;53.584;9.998;2022-09-20T17:02:16;16.20;99.90
15103;DHT22;7652;53.584;9.998;2022-09-20T17:05:19;16.20;99.90
15103;DHT22;7652;53.584;9.998;2022-09-20T17:08:22;16.20;99.90
15103;DHT22;7652;53.584;9.998;2022-09-20T17:11:28;16.10;99.90
15103;DHT22;7652;53.584;9.998;2022-09-20T17:14:32;16.10;99.90
15103;DHT22;7652;53.584;9.998;2022-09-20T17:17:35;16.00;99.90
15103;DHT22;7652;53.584;9.998;2022-09-20T17:20:38;15.80;99.90
15103;DHT22;7652;53.584;9.998;2022-09-20T17:23:44;15.70;99.90
15103;DHT22;7652;53.584;9.998;2022-09-20T17:26:51;15.70;99.90
15103;DHT22;7652;53.584;9.998;2022-09-20T17:29:56;15.60;99.90
15103;DHT22;7652;53.584;9.998;2022-09-20T17:32:59;15.50;99.90
15103;DHT22;7652;53.584;9.998;2022-09-20T17:36:02;15.40;99.90
15103;DHT22;7652;53.584;9.998;2022-09-20T17:39:06;15.30;99.90
15103;DHT22;7652;53.584;9.998;2022-09-20T17:42:11;15.10;99.90
15103;DHT22;7652;53.584;9.998;2022-09-20T17:45:16;14.90;99.90
15103;DHT22;7652;53.584;9.998;2022-09-20T17:48:19;14.70;99.90
15103;DHT22;7652;53.584;9.998;2022-09-20T17:51:25;14.60;99.90
15103;DHT22;7652;53.584;9.998;2022-09-20T17:54:28;14.50;99.90
15103;DHT22;7652;53.584;9.998;2022-09-20T17:57:31;14.50;99.90
15103;DHT22;7652;53.584;9.998;2022-09-20T18:00:35;14.50;99.90
15103;DHT22;7652;53.584;9.998;2022-09-20T18:03:40;14.40;99.90
15103;DHT22;7652;53.584;9.998;2022-09-20T18:06:45;14.20;99.90
15103;DHT22;7652;53.584;9.998;2022-09-20T18:09:48;14.20;99.90
15103;DHT22;7652;53.584;9.998;2022-09-20T18:12:51;14.10;99.90
15103;DHT22;7652;53.584;9.998;2022-09-20T18:15:56;13.90;99.90
15103;DHT22;7652;53.584;9.998;2022-09-20T18:19:00;13.90;99.90
15103;DHT22;7652;53.584;9.998;2022-09-20T18:22:03;13.80;99.90
15103;DHT22;7652;53.584;9.998;2022-09-20T18:25:06;13.80;99.90
15103;DHT22;7652;53.584;9.998;2022-09-20T18:28:09;13.80;99.90
15103;DHT22;7652;53.584;9.998;2022-09-20T18:31:13;13.70;99.90
15103;DHT22;7652;53.584;9.998;2022-09-20T18:34:19;13.60;99.90
15103;DHT22;7652;53.584;9.998;2022-09-20T18:37:23;13.60;99.90
15103;DHT22;7652;53.584;9.998;2022-09-20T18:40:26;13.60;99.90
15103;DHT22;7652;53.584;9.998;2022-09-20T18:43:30;13.50;99.90
15103;DHT22;7652;53.584;9.998;2022-09-20T18:46:37;13.30;99.90
15103;DHT22;7652;53.584;9.998;2022-09-20T18:49:41;13.20;99.90
15103;DHT22;7652;53.584;9.998;2022-09-20T18:52:44;13.20;99.90
15103;DHT22;7652;53.584;9.998;2022-09-20T18:55:48;13.20;99.90
15103;DHT22;7652;53.584;9.998;2022-09-20T18:58:53;13.20;99.90
15103;DHT22;7652;53.584;9.998;2022-09-20T19:02:11;13.10;99.90
15103;DHT22;7652;53.584;9.998;2022-09-20T19:05:22;13.20;99.90
15103;DHT22;7652;53.584;9.998;2022-09-20T19:08:30;13.20;99.90
15103;DHT22;7652;53.584;9.998;2022-09-20T19:11:40;13.20;99.90
15103;DHT22;7652;53.584;9.998;2022-09-20T19:15:00;13.20;99.90
15103;DHT22;7652;53.584;9.998;2022-09-20T19:18:13;13.10;99.90
15103;DHT22;7652;53.584;9.998;2022-09-20T19:21:30;13.10;99.90
15103;DHT22;7652;53.584;9.998;2022-09-20T19:25:04;13.00;99.90
15103;DHT22;7652;53.584;9.998;2022-09-20T19:28:14;13.00;99.90
15103;DHT22;7652;53.584;9.998;2022-09-20T19:31:22;12.90;99.90
15103;DHT22;7652;53.584;9.998;2022-09-20T19:34:29;12.80;99.90
15103;DHT22;7652;53.584;9.998;2022-09-20T19:37:36;12.80;99.90
15103;DHT22;7652;53.584;9.998;2022-09-20T19:40:45;12.80;99.90
15103;DHT22;7652;53.584;9.998;2022-09-20T19:44:07;12.80;99.90
15103;DHT22;7652;53.584;9.998;2022-09-20T19:47:21;12.80;99.90
15103;DHT22;7652;53.584;9.998;2022-09-20T19:50:34;12.90;99.90
15103;DHT22;7652;53.584;9.998;2022-09-20T19:53:40;12.70;99.90
15103;DHT22;7652;53.584;9.998;2022-09-20T19:56:48;12.70;99.90
15103;DHT22;7652;53.584;9.998;2022-09-20T19:59:54;12.70;99.90
15103;DHT22;7652;53.584;9.998;2022-09-20T20:02:59;12.70;99.90
15103;DHT22;7652;53.584;9.998;2022-09-20T20:06:12;12.80;99.90
15103;DHT22;7652;53.584;9.998;2022-09-20T20:09:24;12.80;99.90
15103;DHT22;7652;53.584;9.998;2022-09-20T20:12:33;12.80;99.90
15103;DHT22;7652;53.584;9.998;2022-09-20T20:15:43;12.70;99.90
15103;DHT22;7652;53.584;9.998;2022-09-20T20:18:57;12.70;99.90
15103;DHT22;7652;53.584;9.998;2022-09-20T20:22:15;12.70;99.90
15103;DHT22;7652;53.584;9.998;2022-09-20T20:25:27;12.70;99.90
15103;DHT22;7652;53.584;9.998;2022-09-20T20:28:36;12.70;99.90
15103;DHT22;7652;53.584;9.998;2022-09-20T20:31:39;12.70;99.90
15103;DHT22;7652;53.584;9.998;2022-09-20T20:34:42;12.60;99.90
15103;DHT22;7652;53.584;9.998;2022-09-20T20:37:47;12.50;99.90
15103;DHT22;7652;53.584;9.998;2022-09-20T20:40:56;12.50;99.90
15103;DHT22;7652;53.584;9.998;2022-09-20T20:44:01;12.40;99.90
15103;DHT22;7652;53.584;9.998;2022-09-20T20:47:06;12.40;99.90
15103;DHT22;7652;53.584;9.998;2022-09-20T20:50:09;12.40;99.90
15103;DHT22;7652;53.584;9.998;2022-09-20T20:53:14;12.30;99.90
15103;DHT22;7652;53.584;9.998;2022-09-20T20:56:19;12.20;99.90
15103;DHT22;7652;53.584;9.998;2022-09-20T20:59:22;12.20;99.90